Weather observations for the past three days for
Deming Municipal Airport
Imperial (Metric)
Date Time (mdt) Wind (mph) Vis. (mi.) Weather Sky Cond. Temperature (ºF) Relative Humidity Wind Chill (°F) Heat Index (°F) Pressure Precipitation (in)
Air Dwpt 6 hour altimeter (in) sea level (mb) 1 hr 3 hr 6 hr
Max. Min.
01 08:53 SW 7 10.00 Mostly Cloudy BKN100 73.9 57 56% 30.16 1013.8
01 07:53 SW 3 10.00 Mostly Cloudy BKN110 73 57 57% 30.16 1013.3
01 06:53 W 6 10.00 Mostly Cloudy BKN090 BKN110 71.1 57 61% 30.13 1012.3
01 05:53 SW 3 10.00 Mostly Cloudy BKN110 71.1 55.9 75 69.1 59% 30.13 1011.9
01 04:53 SW 7 10.00 A Few Clouds FEW120 72 55.9 57% 30.12 1011.1
01 03:53 S 7 10.00 Partly Cloudy SCT120 73 55.9 55% 30.13 1011.5
01 02:53 W 7 10.00 Mostly Cloudy BKN110 73.9 55.9 54% 30.14 1011.6
01 01:53 Calm 10.00 Overcast SCT080 BKN095 OVC110 73 57 57% 30.12 1011.2
01 00:53 NW 7 10.00 Mostly Cloudy BKN110 72 57.9 61% 30.14 1012.1
31 23:53 E 9 10.00 Light Rain OVC100 72 60.1 91 72 66% 30.17 1013.1
31 22:53 SW 12 G 20 10.00 Light Rain FEW046 BKN100 OVC120 73.9 55.9 54% 30.16 1013.0
31 21:53 SW 20 G 29 10.00 Mostly Cloudy BKN110 75.9 57 52% 78 30.15 1012.7
31 20:53 SW 16 G 30 10.00 Thunderstorm in Vicinity SCT100 80.1 53.1 39% 80 30.12 1011.7
31 19:53 W 16 G 29 10.00 Fair CLR 82.9 53.1 36% 82 30.03 1008.7
31 18:53 W 20 G 32 10.00 Fair CLR 86 53.1 32% 84 29.99 1007.3
31 17:53 W 22 G 35 10.00 Fair and Breezy CLR 91 53.1 98.1 89.1 27% 89 29.99 1006.9
31 16:53 W 20 G 28 10.00 Fair CLR 96.1 51.1 22% 93 29.97 1005.9
31 15:53 W 9 G 29 10.00 Partly Cloudy SCT100 98.1 51.1 20% 95 30 1006.6
31 14:53 Vrbl 6 G 20 10.00 Fair CLR 96.1 51.1 22% 93 30.03 1008.0
31 13:53 Calm 10.00 Fair CLR 95 50 22% 92 30.06 1008.8
31 12:53 W 13 G 18 10.00 Fair CLR 93.9 52 24% 91 30.08 1009.8
31 11:53 Calm 10.00 Fair CLR 91 52 91 73 26% 88 30.11 1010.7
31 10:53 W 12 G 20 10.00 Fair CLR 88 53.1 30% 86 30.12 1011.0
31 09:53 NW 10 10.00 Fair CLR 82.9 54 37% 82 30.12 1011.4
31 08:53 Calm 10.00 Fair CLR 80.1 53.1 39% 80 30.12 1011.3
31 07:53 W 9 10.00 Fair CLR 75.9 54 47% 78 30.1 1010.6
31 06:53 SW 9 10.00 Fair CLR 73 53.1 50% 30.07 1009.8
31 05:53 NW 10 10.00 Fair CLR 73.9 51.1 79 73 45% 30.07 1009.2
31 04:53 W 10 10.00 Fair CLR 73.9 54 50% 30.08 1009.4
31 03:53 Calm 10.00 Fair CLR 75 53.1 46% 78 30.06 1008.8
31 02:53 NW 7 10.00 Fair CLR 75.9 50 40% 78 30.06 1008.7
31 01:53 W 10 10.00 Fair CLR 79 50 36% 79 30.05 1008.4
31 00:53 SW 6 10.00 Fair CLR 77 48.9 37% 78 30.05 1008.8
30 23:53 SW 5 10.00 Fair CLR 79 48.9 96.1 79 35% 79 30.05 1008.4
30 22:53 NW 9 10.00 Fair CLR 84 48.9 30% 82 30.05 1008.4
30 21:53 W 6 10.00 Fair CLR 82.9 48 30% 81 30.04 1008.3
30 20:53 NW 8 10.00 Fair CLR 86 46.9 26% 83 30.01 1007.4
30 19:53 Calm 10.00 Fair CLR 89.1 48 24% 86 29.99 1007.0
30 18:53 NW 14 10.00 Fair CLR 93 48 21% 90 29.98 1006.7
30 17:53 SW 6 G 17 10.00 A Few Clouds FEW110 96.1 48.9 100 91 20% 93 29.98 1006.3
30 16:53 SE 12 G 21 10.00 Fair CLR 99 46 16% 95 29.98 1006.1
30 15:53 S 12 10.00 Fair CLR 99 46 16% 95 30 1006.8
30 14:53 Calm 10.00 Fair CLR 97 48 19% 93 30.03 1007.7
30 13:53 N 3 10.00 Fair CLR 96.1 50 21% 93 30.07 1009.1
30 12:53 Calm 10.00 A Few Clouds FEW120 91 51.1 26% 88 30.1 1010.2
30 11:53 W 8 10.00 Fair CLR 93 52 93 69.1 25% 90 30.13 1010.8
30 10:53 Vrbl 7 10.00 Fair CLR 89.1 52 28% 87 30.14 1011.6
30 09:53 W 5 10.00 Fair CLR 84.9 53.1 33% 83 30.14 1011.9
30 08:53 W 8 10.00 Fair CLR 80.1 54 41% 80 30.15 1012.4
30 07:53 W 5 10.00 Fair CLR 75 54 48% 78 30.15 1012.0
30 06:53 SW 7 10.00 Fair CLR 71.1 50 47% 30.12 1011.1
30 05:53 Calm 10.00 Fair CLR 71.1 48.9 84 71.1 46% 30.1 1010.3
30 04:53 W 5 10.00 Fair CLR 73.9 50 43% 30.1 1010.2
30 03:53 SW 3 10.00 Fair CLR 77 52 42% 78 30.1 1010.0
30 02:53 SW 9 10.00 A Few Clouds FEW120 79 51.1 38% 79 30.09 1009.3
30 01:53 W 5 10.00 Fair CLR 78.1 48 35% 78 30.09 1009.6
30 00:53 SW 6 10.00 Fair CLR 80.1 45 29% 79 30.08 1009.3
29 23:53 SW 7 10.00 Fair CLR 84 45 99 82 25% 82 30.07 1009.0
29 22:53 SW 3 10.00 Fair CLR 84 45 25% 82 30.07 1008.9
29 21:53 S 6 10.00 Fair CLR 86 44.1 23% 83 30.06 1008.9
29 20:53 S 6 10.00 Fair CLR 88 42.1 20% 84 30.03 1008.1
29 19:53 S 6 10.00 Fair CLR 91.9 43 18% 88 30.02 1007.5
29 18:53 S 8 10.00 Fair CLR 97 44.1 16% 93 30.01 1007.3
29 17:53 S 9 10.00 Fair CLR 99 45 100 91.9 16% 95 30.02 1007.2
29 16:53 SE 6 10.00 Fair CLR 98.1 46 17% 94 30.03 1007.6
29 15:53 Vrbl 5 10.00 Fair CLR 97 46 17% 93 30.05 1008.5
29 14:53 Vrbl 3 10.00 Fair CLR 98.1 46 17% 94 30.08 1009.3
29 13:53 NE 7 10.00 Fair CLR 98.1 46.9 17% 94 30.11 1010.5
29 12:53 Vrbl 6 10.00 Fair CLR 97 48.9 20% 94 30.14 1011.5
29 11:53 Vrbl 3 10.00 Fair CLR 93 48 93.9 72 21% 90 30.18 1012.7
29 10:53 Vrbl 7 10.00 Fair CLR 91 50 25% 88 30.19 1013.5
29 09:53 E 8 10.00 Fair CLR 86 50 29% 84 30.19 1013.6
Date Time (mdt) Wind (mph) Vis. (mi.) Weather Sky Cond. Air Dwpt Max. Min. Relative Humidity Wind Chill (°F) Heat Index (°F) altimeter (in) sea level (mb) 1 hr 3 hr 6 hr
6 hour
Temperature (ºF) Pressure Precipitation (in)